sensor_id;sensor_type;location;lat;lon;timestamp;temperature;humidity
39849;DHT22;25518;47.878;15.914;2023-05-20T00:00:15;9.80;99.90
39849;DHT22;25518;47.878;15.914;2023-05-20T00:03:05;9.70;99.90
39849;DHT22;25518;47.878;15.914;2023-05-20T00:05:54;9.70;99.90
39849;DHT22;25518;47.878;15.914;2023-05-20T00:08:44;9.70;99.90
39849;DHT22;25518;47.878;15.914;2023-05-20T00:11:27;9.60;99.90
39849;DHT22;25518;47.878;15.914;2023-05-20T00:14:16;9.20;99.90
39849;DHT22;25518;47.878;15.914;2023-05-20T00:17:06;9.90;99.90
39849;DHT22;25518;47.878;15.914;2023-05-20T00:19:56;9.80;99.90
39849;DHT22;25518;47.878;15.914;2023-05-20T00:22:45;9.60;99.90
39849;DHT22;25518;47.878;15.914;2023-05-20T00:25:25;9.80;99.90
39849;DHT22;25518;47.878;15.914;2023-05-20T00:28:15;9.90;99.90
39849;DHT22;25518;47.878;15.914;2023-05-20T00:31:05;9.90;99.90
39849;DHT22;25518;47.878;15.914;2023-05-20T00:33:55;9.90;99.90
39849;DHT22;25518;47.878;15.914;2023-05-20T00:36:45;9.90;99.90
39849;DHT22;25518;47.878;15.914;2023-05-20T00:39:34;9.90;99.90
39849;DHT22;25518;47.878;15.914;2023-05-20T00:42:26;9.90;99.90
39849;DHT22;25518;47.878;15.914;2023-05-20T00:45:17;10.00;99.90
39849;DHT22;25518;47.878;15.914;2023-05-20T00:48:07;10.00;99.90
39849;DHT22;25518;47.878;15.914;2023-05-20T00:50:58;10.10;99.90
39849;DHT22;25518;47.878;15.914;2023-05-20T00:53:47;10.00;99.90
39849;DHT22;25518;47.878;15.914;2023-05-20T00:56:38;10.00;99.90
39849;DHT22;25518;47.878;15.914;2023-05-20T00:59:27;9.90;99.90
39849;DHT22;25518;47.878;15.914;2023-05-20T01:02:18;9.90;99.90
39849;DHT22;25518;47.878;15.914;2023-05-20T01:04:52;9.90;99.90
39849;DHT22;25518;47.878;15.914;2023-05-20T01:07:45;9.90;99.90
39849;DHT22;25518;47.878;15.914;2023-05-20T01:10:36;9.80;99.90
39849;DHT22;25518;47.878;15.914;2023-05-20T01:13:34;9.70;99.90
39849;DHT22;25518;47.878;15.914;2023-05-20T01:16:26;9.70;99.90
39849;DHT22;25518;47.878;15.914;2023-05-20T01:19:26;8.90;99.90
39849;DHT22;25518;47.878;15.914;2023-05-20T01:22:29;9.80;99.90
39849;DHT22;25518;47.878;15.914;2023-05-20T01:25:19;9.80;99.90
39849;DHT22;25518;47.878;15.914;2023-05-20T01:28:09;9.60;99.90
39849;DHT22;25518;47.878;15.914;2023-05-20T01:31:01;9.70;99.90
39849;DHT22;25518;47.878;15.914;2023-05-20T01:33:55;9.60;99.90
39849;DHT22;25518;47.878;15.914;2023-05-20T01:36:46;9.70;99.90
39849;DHT22;25518;47.878;15.914;2023-05-20T01:39:38;9.60;99.90
39849;DHT22;25518;47.878;15.914;2023-05-20T01:42:32;9.80;99.90
39849;DHT22;25518;47.878;15.914;2023-05-20T01:45:23;9.90;99.90
39849;DHT22;25518;47.878;15.914;2023-05-20T01:48:13;9.90;99.90
39849;DHT22;25518;47.878;15.914;2023-05-20T01:51:03;10.00;99.90
39849;DHT22;25518;47.878;15.914;2023-05-20T01:53:53;9.40;99.90
39849;DHT22;25518;47.878;15.914;2023-05-20T01:56:44;10.00;99.90
39849;DHT22;25518;47.878;15.914;2023-05-20T01:59:34;10.00;99.90
39849;DHT22;25518;47.878;15.914;2023-05-20T02:02:23;10.00;99.90
39849;DHT22;25518;47.878;15.914;2023-05-20T02:05:13;10.00;99.90
39849;DHT22;25518;47.878;15.914;2023-05-20T02:08:02;10.10;99.90
39849;DHT22;25518;47.878;15.914;2023-05-20T02:10:52;10.10;99.90
39849;DHT22;25518;47.878;15.914;2023-05-20T02:13:42;10.00;99.90
39849;DHT22;25518;47.878;15.914;2023-05-20T02:16:31;10.00;99.90
39849;DHT22;25518;47.878;15.914;2023-05-20T02:19:21;10.00;99.90
39849;DHT22;25518;47.878;15.914;2023-05-20T02:22:12;9.90;99.90
39849;DHT22;25518;47.878;15.914;2023-05-20T02:25:02;9.70;99.90
39849;DHT22;25518;47.878;15.914;2023-05-20T02:27:51;9.60;99.90
39849;DHT22;25518;47.878;15.914;2023-05-20T02:30:41;9.60;99.90
39849;DHT22;25518;47.878;15.914;2023-05-20T02:33:34;9.70;99.90
39849;DHT22;25518;47.878;15.914;2023-05-20T02:36:23;8.50;99.90
39849;DHT22;25518;47.878;15.914;2023-05-20T02:39:13;9.50;99.90
39849;DHT22;25518;47.878;15.914;2023-05-20T02:42:04;9.60;99.90
39849;DHT22;25518;47.878;15.914;2023-05-20T02:44:54;9.50;99.90
39849;DHT22;25518;47.878;15.914;2023-05-20T02:47:46;9.60;99.90
39849;DHT22;25518;47.878;15.914;2023-05-20T02:50:37;9.60;99.90
39849;DHT22;25518;47.878;15.914;2023-05-20T02:53:28;9.60;99.90
39849;DHT22;25518;47.878;15.914;2023-05-20T02:56:18;9.60;99.90
39849;DHT22;25518;47.878;15.914;2023-05-20T02:59:09;9.70;99.90
39849;DHT22;25518;47.878;15.914;2023-05-20T03:18:55;10.10;99.90
39849;DHT22;25518;47.878;15.914;2023-05-20T03:21:45;10.00;99.90
39849;DHT22;25518;47.878;15.914;2023-05-20T03:24:16;10.00;99.90
39849;DHT22;25518;47.878;15.914;2023-05-20T03:27:06;9.80;99.90
39849;DHT22;25518;47.878;15.914;2023-05-20T03:29:56;9.70;99.90
39849;DHT22;25518;47.878;15.914;2023-05-20T03:32:46;9.80;99.90
39849;DHT22;25518;47.878;15.914;2023-05-20T03:35:35;9.80;99.90
39849;DHT22;25518;47.878;15.914;2023-05-20T03:38:25;9.60;99.90
39849;DHT22;25518;47.878;15.914;2023-05-20T03:41:15;9.60;99.90
39849;DHT22;25518;47.878;15.914;2023-05-20T03:44:04;9.70;99.90
39849;DHT22;25518;47.878;15.914;2023-05-20T03:46:54;9.70;99.90
39849;DHT22;25518;47.878;15.914;2023-05-20T03:49:44;9.80;99.90
39849;DHT22;25518;47.878;15.914;2023-05-20T03:52:34;9.70;99.90
39849;DHT22;25518;47.878;15.914;2023-05-20T03:55:23;9.80;99.90
39849;DHT22;25518;47.878;15.914;2023-05-20T03:58:14;9.70;99.90
39849;DHT22;25518;47.878;15.914;2023-05-20T04:01:04;9.90;99.90
39849;DHT22;25518;47.878;15.914;2023-05-20T04:03:53;9.90;99.90
39849;DHT22;25518;47.878;15.914;2023-05-20T04:06:43;10.00;99.90
39849;DHT22;25518;47.878;15.914;2023-05-20T04:09:32;9.90;99.90
39849;DHT22;25518;47.878;15.914;2023-05-20T04:12:22;10.00;99.90
39849;DHT22;25518;47.878;15.914;2023-05-20T04:15:14;10.10;99.90
39849;DHT22;25518;47.878;15.914;2023-05-20T04:18:04;10.20;99.90
39849;DHT22;25518;47.878;15.914;2023-05-20T04:20:55;10.30;99.90
39849;DHT22;25518;47.878;15.914;2023-05-20T04:23:44;10.40;99.90
39849;DHT22;25518;47.878;15.914;2023-05-20T04:26:34;8.60;99.90
39849;DHT22;25518;47.878;15.914;2023-05-20T04:29:23;10.50;99.90
39849;DHT22;25518;47.878;15.914;2023-05-20T04:32:16;10.10;99.90
39849;DHT22;25518;47.878;15.914;2023-05-20T04:35:07;10.60;99.90
39849;DHT22;25518;47.878;15.914;2023-05-20T04:38:00;10.70;99.90
39849;DHT22;25518;47.878;15.914;2023-05-20T04:40:50;10.50;99.90
39849;DHT22;25518;47.878;15.914;2023-05-20T04:43:39;10.60;99.90
39849;DHT22;25518;47.878;15.914;2023-05-20T04:46:29;10.60;99.90
39849;DHT22;25518;47.878;15.914;2023-05-20T04:49:19;10.50;99.90
39849;DHT22;25518;47.878;15.914;2023-05-20T04:52:09;10.50;99.90
39849;DHT22;25518;47.878;15.914;2023-05-20T04:54:58;10.70;99.90
39849;DHT22;25518;47.878;15.914;2023-05-20T04:57:49;10.80;99.90
39849;DHT22;25518;47.878;15.914;2023-05-20T05:00:40;10.80;99.90
39849;DHT22;25518;47.878;15.914;2023-05-20T05:03:30;10.90;99.90
39849;DHT22;25518;47.878;15.914;2023-05-20T05:06:20;10.90;99.90
39849;DHT22;25518;47.878;15.914;2023-05-20T05:09:10;8.30;99.90
39849;DHT22;25518;47.878;15.914;2023-05-20T05:11:59;11.00;99.90
39849;DHT22;25518;47.878;15.914;2023-05-20T05:14:50;10.90;99.90
39849;DHT22;25518;47.878;15.914;2023-05-20T05:17:40;11.00;99.90
39849;DHT22;25518;47.878;15.914;2023-05-20T05:20:29;11.00;99.90
39849;DHT22;25518;47.878;15.914;2023-05-20T05:23:19;11.20;99.90
39849;DHT22;25518;47.878;15.914;2023-05-20T05:26:09;11.30;99.90
39849;DHT22;25518;47.878;15.914;2023-05-20T05:28:59;9.80;99.90
39849;DHT22;25518;47.878;15.914;2023-05-20T05:31:49;11.60;99.90
39849;DHT22;25518;47.878;15.914;2023-05-20T05:34:39;11.60;99.90
39849;DHT22;25518;47.878;15.914;2023-05-20T05:37:29;11.50;99.90
39849;DHT22;25518;47.878;15.914;2023-05-20T05:40:18;11.60;99.90
39849;DHT22;25518;47.878;15.914;2023-05-20T05:43:08;11.80;99.90
39849;DHT22;25518;47.878;15.914;2023-05-20T05:46:00;12.00;99.90
39849;DHT22;25518;47.878;15.914;2023-05-20T05:48:49;12.00;99.90
39849;DHT22;25518;47.878;15.914;2023-05-20T05:51:40;12.10;99.90
39849;DHT22;25518;47.878;15.914;2023-05-20T05:54:30;12.40;99.90
39849;DHT22;25518;47.878;15.914;2023-05-20T05:57:20;12.30;99.90
39849;DHT22;25518;47.878;15.914;2023-05-20T06:00:10;12.50;99.90
39849;DHT22;25518;47.878;15.914;2023-05-20T06:03:00;12.60;99.90
39849;DHT22;25518;47.878;15.914;2023-05-20T06:05:49;11.80;99.90
39849;DHT22;25518;47.878;15.914;2023-05-20T06:08:39;12.80;99.90
39849;DHT22;25518;47.878;15.914;2023-05-20T06:11:29;12.90;99.90
39849;DHT22;25518;47.878;15.914;2023-05-20T06:14:20;13.10;99.90
39849;DHT22;25518;47.878;15.914;2023-05-20T06:17:10;13.20;99.90
39849;DHT22;25518;47.878;15.914;2023-05-20T06:19:59;13.30;99.90
39849;DHT22;25518;47.878;15.914;2023-05-20T06:22:49;11.80;99.90
39849;DHT22;25518;47.878;15.914;2023-05-20T06:25:40;13.30;99.90
39849;DHT22;25518;47.878;15.914;2023-05-20T06:28:30;13.50;99.90
39849;DHT22;25518;47.878;15.914;2023-05-20T06:31:20;13.50;99.90
39849;DHT22;25518;47.878;15.914;2023-05-20T06:34:09;13.70;99.90
39849;DHT22;25518;47.878;15.914;2023-05-20T06:36:59;13.60;99.90
39849;DHT22;25518;47.878;15.914;2023-05-20T06:39:49;13.80;99.90
39849;DHT22;25518;47.878;15.914;2023-05-20T06:42:41;13.90;99.90
39849;DHT22;25518;47.878;15.914;2023-05-20T06:45:33;13.80;99.90
39849;DHT22;25518;47.878;15.914;2023-05-20T06:48:22;14.00;99.90
39849;DHT22;25518;47.878;15.914;2023-05-20T06:51:12;14.10;99.90
39849;DHT22;25518;47.878;15.914;2023-05-20T06:54:02;14.10;99.90
39849;DHT22;25518;47.878;15.914;2023-05-20T06:56:52;14.30;99.90
39849;DHT22;25518;47.878;15.914;2023-05-20T06:59:41;14.50;99.90
39849;DHT22;25518;47.878;15.914;2023-05-20T07:02:32;14.60;99.90
39849;DHT22;25518;47.878;15.914;2023-05-20T07:05:24;14.70;99.90
39849;DHT22;25518;47.878;15.914;2023-05-20T07:08:13;14.70;99.90
39849;DHT22;25518;47.878;15.914;2023-05-20T07:11:03;15.00;99.90
39849;DHT22;25518;47.878;15.914;2023-05-20T07:13:53;15.10;99.90
39849;DHT22;25518;47.878;15.914;2023-05-20T07:16:42;12.90;99.90
39849;DHT22;25518;47.878;15.914;2023-05-20T07:19:32;13.20;99.90
39849;DHT22;25518;47.878;15.914;2023-05-20T07:22:22;15.30;99.90
39849;DHT22;25518;47.878;15.914;2023-05-20T07:25:12;14.90;99.90
39849;DHT22;25518;47.878;15.914;2023-05-20T07:28:02;15.00;99.90
39849;DHT22;25518;47.878;15.914;2023-05-20T07:30:52;15.40;99.90
39849;DHT22;25518;47.878;15.914;2023-05-20T07:33:42;15.20;99.90
39849;DHT22;25518;47.878;15.914;2023-05-20T07:36:31;15.20;99.90
39849;DHT22;25518;47.878;15.914;2023-05-20T07:39:22;15.20;99.90
39849;DHT22;25518;47.878;15.914;2023-05-20T07:42:12;15.30;99.90
39849;DHT22;25518;47.878;15.914;2023-05-20T07:45:02;15.50;99.90
39849;DHT22;25518;47.878;15.914;2023-05-20T07:47:52;15.70;99.90
39849;DHT22;25518;47.878;15.914;2023-05-20T07:50:41;15.90;99.90
39849;DHT22;25518;47.878;15.914;2023-05-20T07:53:31;16.00;99.90
39849;DHT22;25518;47.878;15.914;2023-05-20T07:56:22;16.10;99.90
39849;DHT22;25518;47.878;15.914;2023-05-20T07:59:12;16.30;99.90
39849;DHT22;25518;47.878;15.914;2023-05-20T08:02:02;14.00;99.90
39849;DHT22;25518;47.878;15.914;2023-05-20T08:04:51;16.40;99.90
39849;DHT22;25518;47.878;15.914;2023-05-20T08:07:41;15.10;99.90
39849;DHT22;25518;47.878;15.914;2023-05-20T08:10:31;15.90;99.90
39849;DHT22;25518;47.878;15.914;2023-05-20T08:13:20;16.20;99.90
39849;DHT22;25518;47.878;15.914;2023-05-20T08:16:10;16.40;99.90
39849;DHT22;25518;47.878;15.914;2023-05-20T08:19:00;16.40;99.90
39849;DHT22;25518;47.878;15.914;2023-05-20T08:21:51;16.50;99.90
39849;DHT22;25518;47.878;15.914;2023-05-20T08:24:40;16.60;99.90
39849;DHT22;25518;47.878;15.914;2023-05-20T08:27:30;16.60;99.90
39849;DHT22;25518;47.878;15.914;2023-05-20T08:30:19;16.60;99.90
39849;DHT22;25518;47.878;15.914;2023-05-20T08:33:09;16.60;99.90
39849;DHT22;25518;47.878;15.914;2023-05-20T08:36:00;16.60;99.90
39849;DHT22;25518;47.878;15.914;2023-05-20T08:38:51;16.70;99.90
39849;DHT22;25518;47.878;15.914;2023-05-20T08:41:40;16.90;99.90
39849;DHT22;25518;47.878;15.914;2023-05-20T08:44:30;16.90;99.90
39849;DHT22;25518;47.878;15.914;2023-05-20T08:47:20;16.80;99.90
39849;DHT22;25518;47.878;15.914;2023-05-20T08:50:12;16.90;99.90
39849;DHT22;25518;47.878;15.914;2023-05-20T08:53:02;16.90;99.90
39849;DHT22;25518;47.878;15.914;2023-05-20T08:55:54;17.00;99.90
39849;DHT22;25518;47.878;15.914;2023-05-20T08:58:46;17.20;99.90
39849;DHT22;25518;47.878;15.914;2023-05-20T09:01:40;17.20;99.90
39849;DHT22;25518;47.878;15.914;2023-05-20T09:04:32;17.20;99.90
39849;DHT22;25518;47.878;15.914;2023-05-20T09:07:29;17.30;99.90
39849;DHT22;25518;47.878;15.914;2023-05-20T09:10:19;17.60;99.90
39849;DHT22;25518;47.878;15.914;2023-05-20T09:13:10;17.50;99.90
39849;DHT22;25518;47.878;15.914;2023-05-20T09:16:00;17.40;99.90
39849;DHT22;25518;47.878;15.914;2023-05-20T09:18:55;17.40;99.90
39849;DHT22;25518;47.878;15.914;2023-05-20T09:21:46;17.40;99.90
39849;DHT22;25518;47.878;15.914;2023-05-20T09:24:37;17.40;99.90
39849;DHT22;25518;47.878;15.914;2023-05-20T09:27:27;17.60;99.90
39849;DHT22;25518;47.878;15.914;2023-05-20T09:30:20;17.90;99.90
39849;DHT22;25518;47.878;15.914;2023-05-20T09:33:11;18.00;99.90
39849;DHT22;25518;47.878;15.914;2023-05-20T09:36:11;17.90;99.90
39849;DHT22;25518;47.878;15.914;2023-05-20T09:39:03;18.10;99.90
39849;DHT22;25518;47.878;15.914;2023-05-20T09:41:56;16.50;99.90
39849;DHT22;25518;47.878;15.914;2023-05-20T09:44:49;18.40;99.90
39849;DHT22;25518;47.878;15.914;2023-05-20T09:47:40;18.70;99.90
39849;DHT22;25518;47.878;15.914;2023-05-20T09:50:32;18.90;99.90
39849;DHT22;25518;47.878;15.914;2023-05-20T09:53:26;19.00;99.90
39849;DHT22;25518;47.878;15.914;2023-05-20T09:56:19;19.10;99.90
39849;DHT22;25518;47.878;15.914;2023-05-20T09:59:10;19.10;99.90
39849;DHT22;25518;47.878;15.914;2023-05-20T10:02:01;19.60;99.90
39849;DHT22;25518;47.878;15.914;2023-05-20T10:04:53;19.70;99.90
39849;DHT22;25518;47.878;15.914;2023-05-20T10:11:00;19.30;99.90
39849;DHT22;25518;47.878;15.914;2023-05-20T10:19:57;19.00;99.90
39849;DHT22;25518;47.878;15.914;2023-05-20T10:22:56;18.60;99.90
39849;DHT22;25518;47.878;15.914;2023-05-20T10:25:51;18.80;99.90
39849;DHT22;25518;47.878;15.914;2023-05-20T10:28:42;18.80;99.90
39849;DHT22;25518;47.878;15.914;2023-05-20T10:31:43;17.30;99.90
39849;DHT22;25518;47.878;15.914;2023-05-20T10:34:45;18.60;99.90
39849;DHT22;25518;47.878;15.914;2023-05-20T10:37:42;18.70;99.90
39849;DHT22;25518;47.878;15.914;2023-05-20T10:40:32;18.60;99.90
39849;DHT22;25518;47.878;15.914;2023-05-20T10:43:27;18.60;99.90
39849;DHT22;25518;47.878;15.914;2023-05-20T10:46:18;18.70;99.90
39849;DHT22;25518;47.878;15.914;2023-05-20T10:49:19;18.70;99.90
39849;DHT22;25518;47.878;15.914;2023-05-20T10:52:10;18.60;99.90
39849;DHT22;25518;47.878;15.914;2023-05-20T10:55:00;18.40;99.90
39849;DHT22;25518;47.878;15.914;2023-05-20T10:57:50;18.30;99.90
39849;DHT22;25518;47.878;15.914;2023-05-20T11:00:40;18.30;99.90
39849;DHT22;25518;47.878;15.914;2023-05-20T11:32:18;19.50;99.90
39849;DHT22;25518;47.878;15.914;2023-05-20T11:35:30;19.40;99.90
39849;DHT22;25518;47.878;15.914;2023-05-20T11:38:04;19.30;99.90
39849;DHT22;25518;47.878;15.914;2023-05-20T11:40:55;19.30;99.90
39849;DHT22;25518;47.878;15.914;2023-05-20T11:43:46;19.30;99.90
39849;DHT22;25518;47.878;15.914;2023-05-20T11:46:46;19.30;99.90
39849;DHT22;25518;47.878;15.914;2023-05-20T11:49:40;19.30;99.90
39849;DHT22;25518;47.878;15.914;2023-05-20T11:52:32;19.30;99.90
39849;DHT22;25518;47.878;15.914;2023-05-20T11:55:24;19.40;99.90
39849;DHT22;25518;47.878;15.914;2023-05-20T11:57:56;19.90;99.90
39849;DHT22;25518;47.878;15.914;2023-05-20T12:00:46;20.10;99.90
39849;DHT22;25518;47.878;15.914;2023-05-20T12:03:36;19.90;99.90
39849;DHT22;25518;47.878;15.914;2023-05-20T12:06:26;19.80;99.90
39849;DHT22;25518;47.878;15.914;2023-05-20T12:09:16;19.60;99.90
39849;DHT22;25518;47.878;15.914;2023-05-20T12:12:07;19.40;99.90
39849;DHT22;25518;47.878;15.914;2023-05-20T12:15:00;19.40;99.90
39849;DHT22;25518;47.878;15.914;2023-05-20T12:17:51;19.60;99.90
39849;DHT22;25518;47.878;15.914;2023-05-20T12:20:41;20.10;99.90
39849;DHT22;25518;47.878;15.914;2023-05-20T12:23:31;20.20;99.90
39849;DHT22;25518;47.878;15.914;2023-05-20T12:26:25;20.30;99.90
39849;DHT22;25518;47.878;15.914;2023-05-20T12:32:12;20.30;99.90
39849;DHT22;25518;47.878;15.914;2023-05-20T12:35:05;20.30;99.90
39849;DHT22;25518;47.878;15.914;2023-05-20T12:37:56;20.30;99.90
39849;DHT22;25518;47.878;15.914;2023-05-20T12:40:46;20.60;99.90
39849;DHT22;25518;47.878;15.914;2023-05-20T12:43:36;21.10;99.90
39849;DHT22;25518;47.878;15.914;2023-05-20T12:46:26;20.90;99.90
39849;DHT22;25518;47.878;15.914;2023-05-20T12:49:15;20.80;99.90
39849;DHT22;25518;47.878;15.914;2023-05-20T12:52:05;20.60;99.90
39849;DHT22;25518;47.878;15.914;2023-05-20T12:54:56;20.80;99.90
39849;DHT22;25518;47.878;15.914;2023-05-20T12:57:46;20.90;99.90
39849;DHT22;25518;47.878;15.914;2023-05-20T13:00:36;20.80;99.90
39849;DHT22;25518;47.878;15.914;2023-05-20T13:03:25;21.10;99.90
39849;DHT22;25518;47.878;15.914;2023-05-20T13:06:15;21.30;99.90
39849;DHT22;25518;47.878;15.914;2023-05-20T13:09:05;21.60;99.90
39849;DHT22;25518;47.878;15.914;2023-05-20T13:11:54;21.80;99.90
39849;DHT22;25518;47.878;15.914;2023-05-20T13:14:44;21.80;99.90
39849;DHT22;25518;47.878;15.914;2023-05-20T13:17:34;21.40;99.90
39849;DHT22;25518;47.878;15.914;2023-05-20T13:20:23;21.30;99.90
39849;DHT22;25518;47.878;15.914;2023-05-20T13:23:13;21.40;99.90
39849;DHT22;25518;47.878;15.914;2023-05-20T13:26:03;21.30;99.90
39849;DHT22;25518;47.878;15.914;2023-05-20T13:28:52;21.40;99.90
39849;DHT22;25518;47.878;15.914;2023-05-20T13:31:42;21.10;99.90
39849;DHT22;25518;47.878;15.914;2023-05-20T13:34:31;20.80;99.90
39849;DHT22;25518;47.878;15.914;2023-05-20T13:37:21;20.80;99.90
39849;DHT22;25518;47.878;15.914;2023-05-20T13:40:11;21.00;99.90
39849;DHT22;25518;47.878;15.914;2023-05-20T13:43:01;20.80;99.90
39849;DHT22;25518;47.878;15.914;2023-05-20T13:45:51;20.80;99.90
39849;DHT22;25518;47.878;15.914;2023-05-20T13:48:40;20.70;99.90
39849;DHT22;25518;47.878;15.914;2023-05-20T13:51:30;20.80;99.90
39849;DHT22;25518;47.878;15.914;2023-05-20T13:54:20;20.70;99.90
39849;DHT22;25518;47.878;15.914;2023-05-20T13:57:10;20.40;99.90
39849;DHT22;25518;47.878;15.914;2023-05-20T13:59:59;20.30;99.90
39849;DHT22;25518;47.878;15.914;2023-05-20T14:02:49;20.40;99.90
39849;DHT22;25518;47.878;15.914;2023-05-20T14:05:40;20.60;99.90
39849;DHT22;25518;47.878;15.914;2023-05-20T14:08:30;21.00;99.90
39849;DHT22;25518;47.878;15.914;2023-05-20T14:11:19;21.30;99.90
39849;DHT22;25518;47.878;15.914;2023-05-20T14:14:10;21.60;99.90
39849;DHT22;25518;47.878;15.914;2023-05-20T14:16:59;21.70;99.90
39849;DHT22;25518;47.878;15.914;2023-05-20T14:19:50;21.60;99.90
39849;DHT22;25518;47.878;15.914;2023-05-20T14:22:40;21.30;99.90
39849;DHT22;25518;47.878;15.914;2023-05-20T14:25:30;21.10;99.90
39849;DHT22;25518;47.878;15.914;2023-05-20T14:28:20;20.90;99.90
39849;DHT22;25518;47.878;15.914;2023-05-20T14:31:09;21.20;99.90
39849;DHT22;25518;47.878;15.914;2023-05-20T14:33:59;21.40;99.90
39849;DHT22;25518;47.878;15.914;2023-05-20T14:36:49;21.50;99.90
39849;DHT22;25518;47.878;15.914;2023-05-20T14:39:38;21.60;99.90
39849;DHT22;25518;47.878;15.914;2023-05-20T14:42:28;21.80;99.90
39849;DHT22;25518;47.878;15.914;2023-05-20T14:45:18;20.80;99.90
39849;DHT22;25518;47.878;15.914;2023-05-20T14:48:08;22.00;99.90
39849;DHT22;25518;47.878;15.914;2023-05-20T14:50:57;21.80;99.90
39849;DHT22;25518;47.878;15.914;2023-05-20T14:53:47;21.40;99.90
39849;DHT22;25518;47.878;15.914;2023-05-20T14:56:37;20.80;99.90
39849;DHT22;25518;47.878;15.914;2023-05-20T14:59:26;21.30;99.90
39849;DHT22;25518;47.878;15.914;2023-05-20T15:02:17;21.20;99.90
39849;DHT22;25518;47.878;15.914;2023-05-20T15:05:07;21.10;99.90
39849;DHT22;25518;47.878;15.914;2023-05-20T15:08:00;21.30;99.90
39849;DHT22;25518;47.878;15.914;2023-05-20T15:10:49;21.30;99.90
39849;DHT22;25518;47.878;15.914;2023-05-20T15:13:39;21.20;99.90
39849;DHT22;25518;47.878;15.914;2023-05-20T15:16:28;21.30;99.90
39849;DHT22;25518;47.878;15.914;2023-05-20T15:19:18;21.00;99.90
39849;DHT22;25518;47.878;15.914;2023-05-20T15:22:07;20.80;99.90
39849;DHT22;25518;47.878;15.914;2023-05-20T15:24:57;20.30;99.90
39849;DHT22;25518;47.878;15.914;2023-05-20T15:27:46;19.90;99.90
39849;DHT22;25518;47.878;15.914;2023-05-20T15:30:36;19.70;99.90
39849;DHT22;25518;47.878;15.914;2023-05-20T15:33:25;19.60;99.90
39849;DHT22;25518;47.878;15.914;2023-05-20T15:36:15;19.60;99.90
39849;DHT22;25518;47.878;15.914;2023-05-20T15:39:05;19.50;99.90
39849;DHT22;25518;47.878;15.914;2023-05-20T15:41:55;19.40;99.90
39849;DHT22;25518;47.878;15.914;2023-05-20T15:44:47;19.50;99.90
39849;DHT22;25518;47.878;15.914;2023-05-20T15:47:37;19.80;99.90
39849;DHT22;25518;47.878;15.914;2023-05-20T15:50:27;20.00;99.90
39849;DHT22;25518;47.878;15.914;2023-05-20T15:53:17;20.20;99.90
39849;DHT22;25518;47.878;15.914;2023-05-20T15:56:06;20.30;99.90
39849;DHT22;25518;47.878;15.914;2023-05-20T15:58:57;20.50;99.90
39849;DHT22;25518;47.878;15.914;2023-05-20T16:01:46;20.70;99.90
39849;DHT22;25518;47.878;15.914;2023-05-20T16:04:36;20.80;99.90
39849;DHT22;25518;47.878;15.914;2023-05-20T16:07:26;20.80;99.90
39849;DHT22;25518;47.878;15.914;2023-05-20T16:10:16;20.80;99.90
39849;DHT22;25518;47.878;15.914;2023-05-20T16:13:05;21.00;99.90
39849;DHT22;25518;47.878;15.914;2023-05-20T16:15:55;21.00;99.90
39849;DHT22;25518;47.878;15.914;2023-05-20T16:18:46;20.70;99.90
39849;DHT22;25518;47.878;15.914;2023-05-20T16:21:35;20.40;99.90
39849;DHT22;25518;47.878;15.914;2023-05-20T16:24:25;20.10;99.90
39849;DHT22;25518;47.878;15.914;2023-05-20T16:27:15;18.70;99.90
39849;DHT22;25518;47.878;15.914;2023-05-20T16:30:06;19.80;99.90
39849;DHT22;25518;47.878;15.914;2023-05-20T16:32:56;19.70;99.90
39849;DHT22;25518;47.878;15.914;2023-05-20T16:35:46;19.70;99.90
39849;DHT22;25518;47.878;15.914;2023-05-20T16:38:17;19.70;99.90
39849;DHT22;25518;47.878;15.914;2023-05-20T16:40:48;19.60;99.90
39849;DHT22;25518;47.878;15.914;2023-05-20T16:43:19;19.70;99.90
39849;DHT22;25518;47.878;15.914;2023-05-20T16:45:50;19.70;99.90
39849;DHT22;25518;47.878;15.914;2023-05-20T16:48:21;19.70;99.90
39849;DHT22;25518;47.878;15.914;2023-05-20T16:51:10;19.60;99.90
39849;DHT22;25518;47.878;15.914;2023-05-20T16:54:00;19.50;99.90
39849;DHT22;25518;47.878;15.914;2023-05-20T16:56:31;19.40;99.90
39849;DHT22;25518;47.878;15.914;2023-05-20T16:59:21;19.30;99.90
39849;DHT22;25518;47.878;15.914;2023-05-20T17:02:13;19.40;99.90
39849;DHT22;25518;47.878;15.914;2023-05-20T17:05:02;19.50;99.90
39849;DHT22;25518;47.878;15.914;2023-05-20T17:07:52;19.50;99.90
39849;DHT22;25518;47.878;15.914;2023-05-20T17:10:43;19.40;99.90
39849;DHT22;25518;47.878;15.914;2023-05-20T17:13:33;19.20;99.90
39849;DHT22;25518;47.878;15.914;2023-05-20T17:16:22;19.20;99.90
39849;DHT22;25518;47.878;15.914;2023-05-20T17:19:12;19.20;99.90
39849;DHT22;25518;47.878;15.914;2023-05-20T17:22:02;18.20;99.90
39849;DHT22;25518;47.878;15.914;2023-05-20T17:24:51;19.10;99.90
39849;DHT22;25518;47.878;15.914;2023-05-20T17:27:41;19.10;99.90
39849;DHT22;25518;47.878;15.914;2023-05-20T17:30:31;18.90;99.90
39849;DHT22;25518;47.878;15.914;2023-05-20T17:33:20;18.80;99.90
39849;DHT22;25518;47.878;15.914;2023-05-20T17:36:10;18.50;99.90
39849;DHT22;25518;47.878;15.914;2023-05-20T17:38:59;18.50;99.90
39849;DHT22;25518;47.878;15.914;2023-05-20T17:41:52;18.50;99.90
39849;DHT22;25518;47.878;15.914;2023-05-20T17:44:42;18.30;99.90
39849;DHT22;25518;47.878;15.914;2023-05-20T17:47:31;18.20;99.90
39849;DHT22;25518;47.878;15.914;2023-05-20T17:50:21;18.10;99.90
39849;DHT22;25518;47.878;15.914;2023-05-20T17:53:04;17.90;99.90
39849;DHT22;25518;47.878;15.914;2023-05-20T17:55:54;17.70;99.90
39849;DHT22;25518;47.878;15.914;2023-05-20T17:58:44;17.60;99.90
39849;DHT22;25518;47.878;15.914;2023-05-20T18:01:34;17.40;99.90
39849;DHT22;25518;47.878;15.914;2023-05-20T18:04:22;17.40;99.90
39849;DHT22;25518;47.878;15.914;2023-05-20T18:07:12;16.60;99.90
39849;DHT22;25518;47.878;15.914;2023-05-20T18:10:02;17.10;99.90
39849;DHT22;25518;47.878;15.914;2023-05-20T18:12:52;16.90;99.90
39849;DHT22;25518;47.878;15.914;2023-05-20T18:15:42;16.90;99.90
39849;DHT22;25518;47.878;15.914;2023-05-20T18:18:32;16.60;99.90
39849;DHT22;25518;47.878;15.914;2023-05-20T18:21:23;16.40;99.90
39849;DHT22;25518;47.878;15.914;2023-05-20T18:24:12;16.40;99.90
39849;DHT22;25518;47.878;15.914;2023-05-20T18:27:05;16.40;99.90
39849;DHT22;25518;47.878;15.914;2023-05-20T18:29:54;16.40;99.90
39849;DHT22;25518;47.878;15.914;2023-05-20T18:32:40;16.40;99.90
39849;DHT22;25518;47.878;15.914;2023-05-20T18:35:11;16.30;99.90